< Typhoon 198507 1985 Season Typhoon 198509 >
Typhoon 198508 (KIT)
General InformationTrack Information on Google MapsDetailed Wind InformationList of All Images || Disaster Info.ResourceGoogle EarthGE AnimationAtom FeedGeoJSON
Detalied Best Track (Time Zone = UTC)
Year Month Day Hour Lat. Long. Pressure (hPa) Wind (kt) Class Image Chart
1985 7 31 00 22.0 147.0 1006 0 2 Image Chart
1985 7 31 06 21.5 146.0 1002 0 2 Image Chart
1985 7 31 12 21.0 145.5 1000 0 2 Image Chart
1985 7 31 18 20.5 144.0 1000 0 2 Image Chart
1985 8 1 00 20.5 142.5 1000 0 2 Image Chart
1985 8 1 06 20.7 141.2 1000 0 2 Image Chart
1985 8 1 12 21.0 140.0 1000 0 2 Image Chart
1985 8 1 18 22.0 138.8 1000 0 2 Image Chart
1985 8 2 00 23.0 137.5 1000 0 2 Image Chart
1985 8 2 06 24.0 136.5 1004 0 2 Image Chart
1985 8 2 12 25.0 135.7 1004 0 2 Image Chart
1985 8 2 18 25.5 134.8 1004 0 2 Image Chart
1985 8 3 00 25.9 134.4 1002 0 2 Image Chart
1985 8 3 06 26.2 134.1 998 35 3 Image Chart
1985 8 3 12 26.8 133.7 998 40 3 Image Chart
1985 8 3 18 27.3 133.3 996 40 3 Image Chart
1985 8 4 00 27.5 133.1 996 40 3 Image Chart
1985 8 4 06 27.7 132.9 996 40 3 Image Chart
1985 8 4 12 27.7 132.6 994 40 3 Image Chart
1985 8 4 18 27.8 132.2 994 40 3 Image Chart
1985 8 5 00 28.0 131.9 994 45 3 Image Chart
1985 8 5 06 28.3 132.0 990 55 4 Image Chart
1985 8 5 12 28.6 132.0 985 55 4 Image Chart
1985 8 5 18 28.7 132.1 985 55 4 Image Chart
1985 8 6 00 28.8 132.2 985 55 4 Image Chart
1985 8 6 06 28.9 132.4 975 55 4 Image Chart
1985 8 6 12 29.1 132.5 960 65 5 Image Chart
1985 8 6 18 29.2 132.4 960 65 5 Image Chart
1985 8 7 00 29.3 132.3 965 65 5 Image Chart
1985 8 7 06 29.5 132.4 965 70 5 Image Chart
1985 8 7 12 29.9 131.8 965 70 5 Image Chart
1985 8 7 18 30.1 131.0 965 65 5 Image Chart
1985 8 8 00 30.5 130.3 965 65 5 Image Chart
1985 8 8 06 30.8 129.5 960 65 5 Image Chart
1985 8 8 12 31.0 128.7 960 70 5 Image Chart
1985 8 8 18 31.5 127.9 960 75 5 Image Chart
1985 8 9 00 32.1 127.1 970 70 5 Image Chart
1985 8 9 06 32.5 126.6 970 60 4 Image Chart
1985 8 9 12 32.9 126.4 970 60 4 Image Chart
1985 8 9 18 33.1 126.1 975 60 4 Image Chart
1985 8 10 00 34.2 126.4 990 45 3 Image Chart
1985 8 10 06 35.5 127.1 994 40 3 Image Chart
1985 8 10 12 38.0 128.9 994 35 3 Image Chart
1985 8 10 18 39.5 130.5 992 45 3 Image Chart
1985 8 11 00 41.0 133.5 992 0 6 Image Chart
1985 8 11 06 43.0 136.0 992 0 6 Image Chart
1985 8 11 12 45.0 139.0 992 0 6 Image Chart
1985 8 11 18 47.0 141.0 992 0 6 Image Chart
1985 8 12 00 48.0 144.0 992 0 6 Image Chart
1985 8 12 06 49.0 147.0 992 0 6 Image Chart
1985 8 12 12 49.0 150.0 992 0 6 Image Chart
1985 8 12 18 49.0 152.0 994 0 6 Image Chart
1985 8 13 00 48.0 154.0 994 0 6 Image Chart
1985 8 13 06 47.0 156.0 996 0 6 Image Chart
1985 8 13 12 46.0 157.0 996 0 6 Image Chart
1985 8 13 18 46.0 158.0 996 0 6 Image Chart
1985 8 14 00 45.0 159.0 1000 0 6 Image Chart
1985 8 14 06 44.0 160.0 1002 0 6 Image Chart
1985 8 14 12 43.0 161.0 1002 0 6 Image Chart
1985 8 14 18 42.0 162.0 1002 0 6 Image Chart
1985 8 15 00 41.0 163.0 1000 0 6 Image Chart
1985 8 15 06 41.0 164.0 1000 0 6 Image Chart
1985 8 15 12 41.0 165.0 1000 0 6 Image Chart
1985 8 15 18 41.0 166.0 1000 0 6 Image Chart
1985 8 16 00 42.0 167.0 1000 0 6 Image Chart
1985 8 16 06 43.0 167.0 1002 0 6 Image Chart
1985 8 16 12 44.0 167.0 1004 0 6 Image Chart
1985 8 16 18 45.0 167.0 1006 0 6 Image Chart
1985 8 17 00 46.0 167.0 1008 0 6 Image Chart
1985 8 17 06 46.0 168.0 1008 0 6 Image Chart
1985 8 17 12 46.0 169.0 1008 0 6 Image Chart
1985 8 17 18 47.0 170.0 1008 0 6 Image Chart
Japan Meteorological Agency Best Track Data | Correction Date : 1992-10-21
< Typhoon 198507 1985 Season Typhoon 198509 >

Help